Time;durP1;ratioP1;P1;durP2;ratioP2;P2;SDS_P1;SDS_P2;PMS_P1;PMS_P2;Temp;Humidity;BMP_temperature;BMP_pressure;BME280_temperature;BME280_humidity;BME280_pressure;Samples;Min_cycle;Max_cycle;Signal;HPM_P1;HPM_P2
2023/12/06 00:02:03;;;;;;;1999.90;999.90;;;2.30;99.90;;;;;;4984926;28;20030;-70
2023/12/06 00:04:30;;;;;;;1999.90;999.90;;;2.30;99.90;;;;;;4991274;28;20030;-69
2023/12/06 00:06:56;;;;;;;1999.90;999.90;;;2.30;99.90;;;;;;4994831;28;20022;-69
2023/12/06 00:09:21;;;;;;;1999.90;999.90;;;2.30;99.90;;;;;;4998916;28;20096;-69
2023/12/06 00:11:47;;;;;;;1999.90;999.90;;;2.40;99.90;;;;;;4991706;28;20058;-69
2023/12/06 00:14:13;;;;;;;1999.90;999.90;;;2.40;99.90;;;;;;4990631;28;20111;-69
2023/12/06 00:16:40;;;;;;;1999.90;999.90;;;2.40;99.90;;;;;;4991648;28;20321;-69
2023/12/06 00:19:06;;;;;;;1999.90;999.90;;;2.40;99.90;;;;;;4980092;28;20030;-69
2023/12/06 00:21:31;;;;;;;1999.90;999.90;;;2.50;99.90;;;;;;4976161;28;20041;-69
2023/12/06 00:23:57;;;;;;;1999.90;999.90;;;2.50;99.90;;;;;;4990940;28;20031;-70
2023/12/06 00:26:23;;;;;;;1999.90;999.90;;;2.50;99.90;;;;;;4984831;28;20039;-69
2023/12/06 00:28:49;;;;;;;1999.90;999.90;;;2.50;99.90;;;;;;4991550;28;20037;-69
2023/12/06 00:31:15;;;;;;;1999.90;999.90;;;2.50;99.90;;;;;;4975471;28;20026;-69
2023/12/06 00:33:41;;;;;;;1999.90;999.90;;;2.50;99.90;;;;;;4989520;28;20512;-69
2023/12/06 00:36:07;;;;;;;1999.90;999.90;;;2.60;99.90;;;;;;4989171;28;20035;-70
2023/12/06 00:38:33;;;;;;;1999.90;999.90;;;2.60;99.90;;;;;;4987854;28;20027;-69
2023/12/06 00:41:00;;;;;;;1999.90;999.90;;;2.60;99.90;;;;;;4997110;28;20056;-69
2023/12/06 00:43:25;;;;;;;;;;;2.70;99.90;;;;;;4992670;28;20026;-70
2023/12/06 00:45:51;;;;;;;1999.90;999.90;;;2.70;99.90;;;;;;4992562;28;20338;-70
2023/12/06 00:48:17;;;;;;;1999.90;999.90;;;2.70;99.90;;;;;;4994028;28;20256;-70
2023/12/06 00:50:43;;;;;;;1999.90;999.90;;;2.70;99.90;;;;;;4990548;28;20031;-69
2023/12/06 00:53:09;;;;;;;1999.90;999.90;;;2.70;99.90;;;;;;4994422;28;20109;-69
2023/12/06 00:55:34;;;;;;;1999.90;999.90;;;2.70;99.90;;;;;;4996372;28;20119;-69
2023/12/06 00:58:00;;;;;;;1999.90;999.90;;;2.70;99.90;;;;;;4996708;28;20355;-69
2023/12/06 01:00:26;;;;;;;1999.90;999.90;;;2.70;99.90;;;;;;4978405;28;20062;-69
2023/12/06 01:02:51;;;;;;;1999.90;999.90;;;2.70;99.90;;;;;;4990650;28;20019;-69
2023/12/06 01:05:17;;;;;;;1999.90;999.90;;;2.70;99.90;;;;;;4996311;28;20030;-69
2023/12/06 01:07:43;;;;;;;1999.90;999.90;;;2.70;99.90;;;;;;5009134;28;20136;-69
2023/12/06 01:10:09;;;;;;;1999.90;999.90;;;2.70;99.90;;;;;;4991995;28;20037;-69
2023/12/06 01:12:35;;;;;;;1999.90;999.90;;;2.70;99.90;;;;;;5028289;28;20098;-69
2023/12/06 01:15:03;;;;;;;1999.90;999.90;;;2.80;99.90;;;;;;4995175;28;20034;-70
2023/12/06 01:17:28;;;;;;;1999.90;999.90;;;2.80;99.90;;;;;;5004041;28;20049;-69
2023/12/06 01:19:54;;;;;;;1999.90;999.90;;;2.80;99.90;;;;;;4995488;28;20035;-69
2023/12/06 01:22:20;;;;;;;1999.90;999.90;;;2.80;99.90;;;;;;5013133;28;20031;-70
2023/12/06 01:24:47;;;;;;;1999.90;999.90;;;2.80;99.90;;;;;;4994356;28;20043;-69
2023/12/06 01:27:12;;;;;;;1999.90;999.90;;;2.80;99.90;;;;;;5000348;28;20054;-69
2023/12/06 01:29:38;;;;;;;1999.90;999.90;;;2.80;99.90;;;;;;4973642;28;20218;-69
2023/12/06 01:32:04;;;;;;;1999.90;999.90;;;2.80;99.90;;;;;;4995871;28;20051;-69
2023/12/06 01:34:30;;;;;;;1999.90;999.90;;;2.80;99.90;;;;;;4994413;28;20317;-69
2023/12/06 01:36:56;;;;;;;1999.90;999.90;;;2.80;99.90;;;;;;4999901;28;20034;-70
2023/12/06 01:39:21;;;;;;;1999.90;999.90;;;2.80;99.90;;;;;;4992836;28;20340;-69
2023/12/06 01:41:51;;;;;;;1999.90;999.90;;;2.80;99.90;;;;;;4999197;28;20109;-69
2023/12/06 01:44:17;;;;;;;1999.90;999.90;;;2.80;99.90;;;;;;4994083;28;20038;-69
2023/12/06 01:46:43;;;;;;;1999.90;999.90;;;2.80;99.90;;;;;;5007862;28;20024;-69
2023/12/06 01:49:11;;;;;;;1999.90;999.90;;;2.80;99.90;;;;;;5000714;28;20026;-69
2023/12/06 01:51:37;;;;;;;1999.90;999.90;;;2.90;99.90;;;;;;4985509;28;20030;-69
2023/12/06 01:54:03;;;;;;;1999.90;999.90;;;2.80;99.90;;;;;;4994842;28;20092;-69
2023/12/06 01:56:30;;;;;;;1999.90;999.90;;;2.80;99.90;;;;;;4980557;28;20038;-69
2023/12/06 01:58:55;;;;;;;1999.90;999.90;;;2.90;99.90;;;;;;4995587;28;20030;-69
2023/12/06 02:01:22;;;;;;;1999.90;999.90;;;2.90;99.90;;;;;;4983533;28;20386;-69
2023/12/06 02:03:49;;;;;;;1999.90;999.90;;;2.90;99.90;;;;;;4993532;28;20355;-69
2023/12/06 02:06:15;;;;;;;1999.90;999.90;;;3.00;99.90;;;;;;4994060;28;20182;-69
2023/12/06 02:08:42;;;;;;;1999.90;999.90;;;3.00;99.90;;;;;;4990676;28;20133;-69
2023/12/06 02:11:08;;;;;;;1999.90;999.90;;;3.00;99.90;;;;;;5017807;28;20083;-69
2023/12/06 02:13:34;;;;;;;1999.90;999.90;;;3.10;99.90;;;;;;5021527;28;20029;-69
2023/12/06 02:16:00;;;;;;;1999.90;999.90;;;3.10;99.90;;;;;;4995725;28;20452;-69
2023/12/06 02:18:28;;;;;;;1999.90;999.90;;;3.00;99.90;;;;;;4998503;28;20129;-70
2023/12/06 02:20:54;;;;;;;1999.90;999.90;;;3.00;99.90;;;;;;4993334;28;20039;-69
2023/12/06 02:23:24;;;;;;;1999.90;999.90;;;3.10;99.90;;;;;;4980125;28;20121;-69
2023/12/06 02:25:50;;;;;;;1999.90;999.90;;;3.10;99.90;;;;;;4992483;28;20031;-69
2023/12/06 02:28:16;;;;;;;1999.90;999.90;;;3.10;99.90;;;;;;4993558;28;20087;-69
2023/12/06 02:30:41;;;;;;;1999.90;999.90;;;3.20;99.90;;;;;;4991523;28;20429;-69
2023/12/06 02:33:07;;;;;;;1999.90;999.90;;;3.10;99.90;;;;;;4977982;28;20073;-69
2023/12/06 02:35:46;;;;;;;1999.90;999.90;;;3.20;99.90;;;;;;4993779;28;20034;-69
2023/12/06 02:38:14;;;;;;;1999.90;999.90;;;3.20;99.90;;;;;;4993074;28;20045;-69
2023/12/06 02:40:43;;;;;;;1999.90;999.90;;;3.20;99.90;;;;;;4993660;28;20026;-69
2023/12/06 02:43:09;;;;;;;1999.90;999.90;;;3.20;99.90;;;;;;5010910;28;20084;-69
2023/12/06 02:45:34;;;;;;;1999.90;999.90;;;3.20;99.90;;;;;;4994176;28;20027;-69
2023/12/06 02:48:00;;;;;;;1999.90;999.90;;;3.20;99.90;;;;;;5000014;28;20262;-69
2023/12/06 02:50:26;;;;;;;1999.90;999.90;;;3.20;99.90;;;;;;4994595;28;20113;-70
2023/12/06 02:52:51;;;;;;;1999.90;999.90;;;3.20;99.90;;;;;;5003167;28;20093;-69
2023/12/06 02:55:17;;;;;;;1999.90;999.90;;;3.20;99.90;;;;;;4993035;28;20023;-69
2023/12/06 02:57:43;;;;;;;1999.90;999.90;;;3.20;99.90;;;;;;5000380;28;20030;-69
2023/12/06 03:00:10;;;;;;;1999.90;999.90;;;3.20;99.90;;;;;;4993095;28;20450;-69
2023/12/06 03:02:36;;;;;;;1999.90;999.90;;;3.30;99.90;;;;;;4992977;28;20030;-69
2023/12/06 03:05:01;;;;;;;1999.90;999.90;;;3.20;99.90;;;;;;4994515;28;20049;-69
2023/12/06 03:07:27;;;;;;;1999.90;999.90;;;3.20;99.90;;;;;;4994429;28;20022;-70
2023/12/06 03:09:53;;;;;;;1999.90;999.90;;;3.30;99.90;;;;;;5006412;28;20026;-69
2023/12/06 03:12:19;;;;;;;1999.90;999.90;;;3.30;99.90;;;;;;4997732;28;20034;-69
2023/12/06 03:14:44;;;;;;;1999.90;999.90;;;3.30;99.90;;;;;;4992950;28;20026;-70
2023/12/06 03:17:10;;;;;;;1999.90;999.90;;;3.30;99.90;;;;;;5047899;28;20171;-69
2023/12/06 03:19:36;;;;;;;1999.90;999.90;;;3.30;99.90;;;;;;4994945;28;20135;-70
2023/12/06 03:22:02;;;;;;;1999.90;999.90;;;3.30;99.90;;;;;;4992827;28;20027;-70
2023/12/06 03:24:27;;;;;;;1999.90;999.90;;;3.40;99.90;;;;;;4975417;28;20435;-69
2023/12/06 03:26:53;;;;;;;1999.90;999.90;;;3.30;99.90;;;;;;4997438;28;20111;-70
2023/12/06 03:29:19;;;;;;;1999.90;999.90;;;3.40;99.90;;;;;;5007365;28;20041;-70
2023/12/06 03:31:44;;;;;;;1999.90;999.90;;;3.40;99.90;;;;;;4993498;28;20053;-70
2023/12/06 03:34:10;;;;;;;1999.90;999.90;;;3.40;99.90;;;;;;5005093;28;20057;-70
2023/12/06 03:36:36;;;;;;;1999.90;999.90;;;3.40;99.90;;;;;;4991239;28;20440;-70
2023/12/06 03:39:02;;;;;;;1999.90;999.90;;;3.50;99.90;;;;;;4993202;28;20080;-70
2023/12/06 03:41:27;;;;;;;1999.90;999.90;;;3.50;99.90;;;;;;4993139;28;20037;-70
2023/12/06 03:43:53;;;;;;;1999.90;999.90;;;3.50;99.90;;;;;;4987818;28;20401;-70
2023/12/06 03:46:19;;;;;;;1999.90;999.90;;;3.60;99.90;;;;;;4997926;28;20028;-70
2023/12/06 03:48:44;;;;;;;1999.90;999.90;;;3.60;99.90;;;;;;4993174;28;20026;-70
2023/12/06 03:51:10;;;;;;;1999.90;999.90;;;3.60;99.90;;;;;;4993621;28;20038;-70
2023/12/06 03:53:36;;;;;;;1999.90;999.90;;;3.60;99.90;;;;;;4977449;28;20455;-70
2023/12/06 03:56:01;;;;;;;1999.90;999.90;;;3.60;99.90;;;;;;4992497;28;20058;-70
2023/12/06 03:58:27;;;;;;;1999.90;999.90;;;3.60;99.90;;;;;;5002553;28;20105;-70
2023/12/06 04:00:53;;;;;;;1999.90;999.90;;;3.70;99.90;;;;;;4995547;28;20034;-70
2023/12/06 04:03:19;;;;;;;1999.90;999.90;;;3.70;99.90;;;;;;4977868;28;20026;-70
2023/12/06 04:05:45;;;;;;;1999.90;999.90;;;3.70;99.90;;;;;;4998583;28;20044;-69
2023/12/06 04:08:11;;;;;;;1999.90;999.90;;;3.70;99.90;;;;;;4991789;28;20456;-69
2023/12/06 04:10:37;;;;;;;1999.90;999.90;;;3.70;99.90;;;;;;4997689;28;20030;-69
2023/12/06 04:13:04;;;;;;;1999.90;999.90;;;3.70;99.90;;;;;;5012347;28;20038;-70
2023/12/06 04:15:30;;;;;;;;;;;3.70;99.90;;;;;;4994143;28;20022;-70
2023/12/06 04:17:56;;;;;;;1999.90;999.90;;;3.70;99.90;;;;;;4992482;28;20285;-69
2023/12/06 04:20:22;;;;;;;1999.90;999.90;;;3.70;99.90;;;;;;4991135;28;20433;-69
2023/12/06 04:22:47;;;;;;;1999.90;999.90;;;3.80;99.90;;;;;;4996092;28;20027;-70
2023/12/06 04:25:16;;;;;;;1999.90;999.90;;;3.80;99.90;;;;;;4994235;28;20037;-70
2023/12/06 04:27:42;;;;;;;1999.90;999.90;;;3.70;99.90;;;;;;4990883;28;20038;-69
2023/12/06 04:30:10;;;;;;;1999.90;999.90;;;3.80;99.90;;;;;;4996038;28;20027;-69
2023/12/06 04:32:36;;;;;;;1999.90;999.90;;;3.80;99.90;;;;;;5002107;28;20037;-69
2023/12/06 04:35:02;;;;;;;1999.90;999.90;;;3.80;99.90;;;;;;4991485;28;20035;-70
2023/12/06 04:37:28;;;;;;;1999.90;999.90;;;3.70;99.90;;;;;;4991671;28;20343;-69
2023/12/06 04:39:54;;;;;;;1999.90;999.90;;;3.70;99.90;;;;;;4992177;28;20031;-70
2023/12/06 04:42:20;;;;;;;1999.90;999.90;;;3.70;99.90;;;;;;4992843;28;20469;-69
2023/12/06 04:44:46;;;;;;;1999.90;999.90;;;3.70;99.90;;;;;;4994594;28;20030;-70
2023/12/06 04:47:12;;;;;;;1999.90;999.90;;;3.80;99.90;;;;;;4992167;28;20069;-69
2023/12/06 04:49:38;;;;;;;1999.90;999.90;;;3.80;99.90;;;;;;4999696;28;20034;-69
2023/12/06 04:52:04;;;;;;;1999.90;999.90;;;3.80;99.90;;;;;;5021550;28;20033;-70
2023/12/06 04:54:29;;;;;;;1999.90;999.90;;;3.80;99.90;;;;;;4992177;28;20072;-70
2023/12/06 04:56:55;;;;;;;1999.90;999.90;;;3.80;99.90;;;;;;4991922;28;20058;-70
2023/12/06 04:59:21;;;;;;;1999.90;999.90;;;3.80;99.90;;;;;;5002741;28;20439;-70
2023/12/06 05:01:46;;;;;;;1999.90;999.90;;;3.90;99.90;;;;;;4992161;28;20080;-70
2023/12/06 05:04:12;;;;;;;1999.90;999.90;;;3.90;99.90;;;;;;4991196;28;20325;-70
2023/12/06 05:06:38;;;;;;;1999.90;999.90;;;3.90;99.90;;;;;;4991559;28;20026;-70
2023/12/06 05:09:07;;;;;;;1999.90;999.90;;;3.90;99.90;;;;;;4981749;28;20071;-70
2023/12/06 05:11:33;;;;;;;1999.90;999.90;;;3.90;99.90;;;;;;4993820;28;20051;-70
2023/12/06 05:13:59;;;;;;;1999.90;999.90;;;3.90;99.90;;;;;;4992643;28;20022;-70
2023/12/06 05:16:25;;;;;;;1999.90;999.90;;;3.90;99.90;;;;;;4995549;28;20022;-70
2023/12/06 05:18:51;;;;;;;1999.90;999.90;;;4.00;99.90;;;;;;4995697;28;20034;-69
2023/12/06 05:21:16;;;;;;;1999.90;999.90;;;3.90;99.90;;;;;;5013869;28;20122;-69
2023/12/06 05:23:42;;;;;;;1999.90;999.90;;;4.00;99.90;;;;;;4983543;28;20035;-70
2023/12/06 05:26:08;;;;;;;1999.90;999.90;;;4.00;99.90;;;;;;5003505;28;20061;-70
2023/12/06 05:28:34;;;;;;;1999.90;999.90;;;4.00;99.90;;;;;;5020649;28;20348;-70
2023/12/06 05:31:00;;;;;;;1999.90;999.90;;;4.10;99.90;;;;;;4990773;28;20264;-70
2023/12/06 05:33:27;;;;;;;1999.90;999.90;;;4.10;99.90;;;;;;4991615;28;20325;-70
2023/12/06 05:35:55;;;;;;;1999.90;999.90;;;4.10;99.90;;;;;;4996460;28;20333;-70
2023/12/06 05:38:21;;;;;;;1999.90;999.90;;;4.10;99.90;;;;;;4989205;28;20034;-70
2023/12/06 05:40:47;;;;;;;1999.90;999.90;;;4.10;99.90;;;;;;4995456;28;20075;-70
2023/12/06 05:43:13;;;;;;;1999.90;999.90;;;4.20;99.90;;;;;;4992864;28;20019;-69
2023/12/06 05:45:39;;;;;;;1999.90;999.90;;;4.20;99.90;;;;;;4995004;28;20072;-70
2023/12/06 05:48:04;;;;;;;1999.90;999.90;;;4.20;99.90;;;;;;4997744;28;20484;-69
2023/12/06 05:50:31;;;;;;;1999.90;999.90;;;4.20;99.90;;;;;;4998059;28;20067;-69
2023/12/06 05:52:58;;;;;;;1999.90;999.90;;;4.10;99.90;;;;;;4993591;28;20030;-70
2023/12/06 05:55:23;;;;;;;1999.90;999.90;;;4.10;99.90;;;;;;4997997;28;20023;-70
2023/12/06 05:57:49;;;;;;;1999.90;999.90;;;4.10;99.90;;;;;;4977121;28;20029;-70
2023/12/06 06:00:17;;;;;;;1999.90;999.90;;;4.10;99.90;;;;;;4994201;28;20019;-69
2023/12/06 06:02:43;;;;;;;1999.90;999.90;;;4.10;99.90;;;;;;4995605;28;20079;-70
2023/12/06 06:05:10;;;;;;;1999.90;999.90;;;4.10;99.90;;;;;;4997114;28;20025;-70
2023/12/06 06:07:36;;;;;;;1999.90;999.90;;;4.10;99.90;;;;;;4999985;28;20026;-70
2023/12/06 06:10:03;;;;;;;1999.90;999.90;;;4.10;99.90;;;;;;4996222;28;20034;-70
2023/12/06 06:12:29;;;;;;;1999.90;999.90;;;4.10;99.90;;;;;;4993990;28;20040;-70
2023/12/06 06:14:55;;;;;;;1999.90;999.90;;;4.10;99.90;;;;;;4994248;28;20034;-70
2023/12/06 06:17:22;;;;;;;1999.90;999.90;;;4.20;99.90;;;;;;4996034;28;20072;-70
2023/12/06 06:19:47;;;;;;;1999.90;999.90;;;4.20;99.90;;;;;;4994239;28;20056;-70
2023/12/06 06:22:13;;;;;;;1999.90;999.90;;;4.20;99.90;;;;;;4982617;28;20034;-70
2023/12/06 06:24:38;;;;;;;1999.90;999.90;;;4.20;99.90;;;;;;5000630;28;20397;-70
2023/12/06 06:27:04;;;;;;;1999.90;999.90;;;4.20;99.90;;;;;;4992843;28;20047;-70
2023/12/06 06:29:30;;;;;;;1999.90;999.90;;;4.20;99.90;;;;;;4993620;28;20065;-69
2023/12/06 06:31:56;;;;;;;1999.90;999.90;;;4.20;99.90;;;;;;4992520;28;20026;-68
2023/12/06 06:34:22;;;;;;;1999.90;999.90;;;4.20;99.90;;;;;;4993191;28;20034;-70
2023/12/06 06:36:47;;;;;;;1999.90;999.90;;;4.20;99.90;;;;;;4993795;28;20476;-70
2023/12/06 06:39:13;;;;;;;1999.90;999.90;;;4.30;99.90;;;;;;4992531;28;20027;-70
2023/12/06 06:41:39;;;;;;;1999.90;999.90;;;4.30;99.90;;;;;;4992961;28;20026;-70
2023/12/06 06:44:05;;;;;;;1999.90;999.90;;;4.30;99.90;;;;;;4993408;28;20035;-70
2023/12/06 06:46:31;;;;;;;1999.90;999.90;;;4.30;99.90;;;;;;4992373;28;20035;-70
2023/12/06 06:48:57;;;;;;;1999.90;999.90;;;4.30;99.90;;;;;;5003901;28;20035;-70
2023/12/06 06:51:35;;;;;;;1999.90;999.90;;;4.30;99.90;;;;;;4992162;28;20474;-69
2023/12/06 06:54:04;;;;;;;1999.90;999.90;;;4.30;99.90;;;;;;4990596;28;20038;-70
2023/12/06 06:56:30;;;;;;;1999.90;999.90;;;4.30;99.90;;;;;;4997667;28;20079;-70
2023/12/06 06:58:56;;;;;;;1999.90;999.90;;;4.30;99.90;;;;;;4995028;28;20359;-70
2023/12/06 07:01:22;;;;;;;1999.90;999.90;;;4.30;99.90;;;;;;5008677;28;20420;-70
2023/12/06 07:03:47;;;;;;;1999.90;999.90;;;4.30;99.90;;;;;;5000626;28;20076;-70
2023/12/06 07:06:13;;;;;;;1999.90;999.90;;;4.30;99.90;;;;;;4993707;28;20023;-70
2023/12/06 07:08:40;;;;;;;1999.90;999.90;;;4.30;99.90;;;;;;4994700;28;20444;-70
2023/12/06 07:11:07;;;;;;;1999.90;999.90;;;4.30;99.90;;;;;;4994722;28;20482;-70
2023/12/06 07:13:32;;;;;;;;;;;4.30;99.90;;;;;;4974920;28;20068;-70
2023/12/06 07:15:58;;;;;;;1999.90;999.90;;;4.30;99.90;;;;;;4991522;28;19913;-70
2023/12/06 07:18:26;;;;;;;1999.90;999.90;;;4.30;99.90;;;;;;4992611;28;20095;-69
2023/12/06 07:20:52;;;;;;;1999.90;999.90;;;4.30;99.90;;;;;;4974484;28;20455;-70
2023/12/06 07:23:18;;;;;;;1999.90;999.90;;;4.30;99.90;;;;;;4991796;28;20031;-70
2023/12/06 07:25:47;;;;;;;1999.90;999.90;;;4.30;99.90;;;;;;4989854;28;20039;-69
2023/12/06 07:28:13;;;;;;;1999.90;999.90;;;4.20;99.90;;;;;;4993452;28;20022;-70
2023/12/06 07:30:42;;;;;;;1999.90;999.90;;;4.20;99.90;;;;;;4995505;28;20405;-69
2023/12/06 07:33:09;;;;;;;1999.90;999.90;;;4.20;99.90;;;;;;4995305;28;20053;-70
2023/12/06 07:35:35;;;;;;;1999.90;999.90;;;4.20;99.90;;;;;;5016829;28;20035;-70
2023/12/06 07:38:01;;;;;;;1999.90;999.90;;;4.10;99.90;;;;;;4992309;28;20510;-70
2023/12/06 07:40:28;;;;;;;1999.90;999.90;;;4.10;99.90;;;;;;4980587;28;20061;-69
2023/12/06 07:42:54;;;;;;;1999.90;999.90;;;4.10;99.90;;;;;;4992175;28;20088;-69
2023/12/06 07:45:21;;;;;;;1999.90;999.90;;;4.10;99.90;;;;;;4999613;28;20027;-70
2023/12/06 07:47:48;;;;;;;1999.90;999.90;;;4.10;99.90;;;;;;4997610;28;20058;-70
2023/12/06 07:50:14;;;;;;;1999.90;999.90;;;4.00;99.90;;;;;;4995965;28;20034;-70
2023/12/06 07:52:40;;;;;;;1999.90;999.90;;;4.10;99.90;;;;;;4994114;28;20113;-69
2023/12/06 07:55:06;;;;;;;1999.90;999.90;;;4.10;99.90;;;;;;4990962;28;20371;-70
2023/12/06 07:57:36;;;;;;;1999.90;999.90;;;4.10;99.90;;;;;;4991279;28;20034;-70
2023/12/06 08:00:04;;;;;;;1999.90;999.90;;;4.00;99.90;;;;;;5003238;28;20059;-70
2023/12/06 08:02:32;;;;;;;1999.90;999.90;;;4.00;99.90;;;;;;4988673;28;20033;-70
2023/12/06 08:05:02;;;;;;;1999.90;999.90;;;4.00;99.90;;;;;;4988472;28;20273;-70
2023/12/06 08:07:28;;;;;;;1999.90;999.90;;;4.00;99.90;;;;;;4991172;28;20025;-70
2023/12/06 08:09:54;;;;;;;1999.90;999.90;;;3.90;99.90;;;;;;4991327;28;20405;-70
2023/12/06 08:12:20;;;;;;;1999.90;999.90;;;4.00;99.90;;;;;;4992106;28;20039;-70
2023/12/06 08:14:46;;;;;;;1999.90;999.90;;;4.00;99.90;;;;;;5003483;28;20337;-70
2023/12/06 08:17:12;;;;;;;1999.90;999.90;;;4.00;99.90;;;;;;4991427;28;20088;-69
2023/12/06 08:19:37;;;;;;;1999.90;999.90;;;4.00;99.90;;;;;;4990980;28;20160;-70
2023/12/06 08:22:04;;;;;;;1999.90;999.90;;;3.90;99.90;;;;;;4991218;28;20478;-70
2023/12/06 08:24:30;;;;;;;1999.90;999.90;;;3.90;99.90;;;;;;4990501;28;20129;-70
2023/12/06 08:26:55;;;;;;;1999.90;999.90;;;3.80;99.90;;;;;;4971655;28;20160;-70
2023/12/06 08:29:21;;;;;;;1999.90;999.90;;;3.80;99.90;;;;;;5044139;28;20025;-70
2023/12/06 08:31:47;;;;;;;1999.90;999.90;;;3.70;99.90;;;;;;5056150;28;20047;-69
2023/12/06 08:34:13;;;;;;;1999.90;999.90;;;3.60;99.90;;;;;;5025994;28;20029;-70
2023/12/06 08:36:39;;;;;;;1999.90;999.90;;;3.50;99.90;;;;;;5036352;28;20371;-70
2023/12/06 08:39:04;;;;;;;1999.90;999.90;;;3.40;99.90;;;;;;4971148;28;20105;-69
2023/12/06 08:41:30;;;;;;;1999.90;999.90;;;3.40;99.90;;;;;;4993970;28;20135;-69
2023/12/06 08:43:56;;;;;;;1999.90;999.90;;;3.40;99.90;;;;;;4971946;28;20027;-69
2023/12/06 08:46:23;;;;;;;1999.90;999.90;;;3.30;99.90;;;;;;4969817;28;20038;-70
2023/12/06 08:48:49;;;;;;;1999.90;999.90;;;3.40;99.90;;;;;;4972105;28;20030;-70
2023/12/06 08:51:14;;;;;;;1999.90;999.90;;;3.40;99.90;;;;;;4969780;28;20031;-70
2023/12/06 08:53:40;;;;;;;1999.90;999.90;;;3.30;99.90;;;;;;4970764;28;20106;-70
2023/12/06 08:56:06;;;;;;;1999.90;999.90;;;3.30;99.90;;;;;;4967035;28;20042;-70
2023/12/06 08:58:32;;;;;;;1999.90;999.90;;;3.40;99.90;;;;;;4971857;28;20030;-69
2023/12/06 09:00:58;;;;;;;1999.90;999.90;;;3.40;99.90;;;;;;5001767;28;20041;-69
2023/12/06 09:03:24;;;;;;;1999.90;999.90;;;3.50;99.90;;;;;;4976118;28;20027;-69
2023/12/06 09:05:49;;;;;;;1999.90;999.90;;;3.50;99.90;;;;;;4990558;28;20037;-69
2023/12/06 09:08:15;;;;;;;1999.90;999.90;;;3.60;99.90;;;;;;5015469;28;20021;-70
2023/12/06 09:10:41;;;;;;;1999.90;999.90;;;3.60;99.90;;;;;;5004479;28;20066;-69
2023/12/06 09:13:07;;;;;;;1999.90;999.90;;;3.70;99.90;;;;;;4973937;28;20578;-70
2023/12/06 09:15:33;;;;;;;1999.90;999.90;;;3.70;99.90;;;;;;5000581;28;20045;-70
2023/12/06 09:17:59;;;;;;;1999.90;999.90;;;3.80;99.90;;;;;;4951488;28;20670;-70
2023/12/06 09:20:25;;;;;;;1999.90;999.90;;;3.90;99.90;;;;;;4979027;28;20459;-70
2023/12/06 09:22:51;;;;;;;1999.90;999.90;;;4.00;99.90;;;;;;4980505;28;20074;-69
2023/12/06 09:25:17;;;;;;;1999.90;999.90;;;4.10;99.90;;;;;;4957594;28;20041;-70
2023/12/06 09:27:43;;;;;;;1999.90;999.90;;;4.20;99.90;;;;;;4993218;28;20064;-69
2023/12/06 09:30:09;;;;;;;1999.90;999.90;;;4.20;99.90;;;;;;4993646;28;20378;-70
2023/12/06 09:32:35;;;;;;;1999.90;999.90;;;4.30;99.90;;;;;;4986089;28;20034;-69
2023/12/06 09:35:02;;;;;;;1999.90;999.90;;;4.20;99.90;;;;;;4992959;28;20450;-69
2023/12/06 09:37:28;;;;;;;1999.90;999.90;;;4.30;99.90;;;;;;4990913;28;20018;-70
2023/12/06 09:39:54;;;;;;;1999.90;999.90;;;4.30;99.90;;;;;;4991190;28;20031;-69
2023/12/06 09:42:23;;;;;;;1999.90;999.90;;;4.30;99.90;;;;;;4991258;28;20030;-69
2023/12/06 09:44:51;;;;;;;1999.90;999.90;;;4.40;99.90;;;;;;4992343;28;20068;-69
2023/12/06 09:47:19;;;;;;;1999.90;999.90;;;4.50;99.90;;;;;;4990357;28;20026;-70
2023/12/06 09:49:45;;;;;;;1999.90;999.90;;;4.70;99.90;;;;;;4991390;28;20049;-69
2023/12/06 09:52:17;;;;;;;1999.90;999.90;;;4.80;99.90;;;;;;4992664;28;20479;-70
2023/12/06 09:54:43;;;;;;;1999.90;999.90;;;5.10;99.90;;;;;;4990373;28;20358;-69
2023/12/06 09:57:11;;;;;;;1999.90;999.90;;;5.20;99.90;;;;;;4993064;28;20034;-69
2023/12/06 09:59:38;;;;;;;1999.90;999.90;;;5.40;99.90;;;;;;4992403;28;20042;-70
2023/12/06 10:02:04;;;;;;;1999.90;999.90;;;5.50;99.90;;;;;;4991848;28;20022;-70
2023/12/06 10:04:29;;;;;;;1999.90;999.90;;;5.70;99.90;;;;;;4986447;28;20057;-70
2023/12/06 10:06:57;;;;;;;1999.90;999.90;;;5.80;99.90;;;;;;4988930;28;20101;-70
2023/12/06 10:09:23;;;;;;;1999.90;999.90;;;6.00;99.90;;;;;;4991452;28;20035;-70
2023/12/06 10:11:48;;;;;;;1999.90;999.90;;;6.10;99.90;;;;;;4992211;28;20038;-70
2023/12/06 10:14:18;;;;;;;1999.90;999.90;;;6.20;99.90;;;;;;4992317;28;20284;-70
2023/12/06 10:16:45;;;;;;;1999.90;999.90;;;6.30;99.90;;;;;;4992052;28;20054;-69
2023/12/06 10:19:19;;;;;;;1999.90;999.90;;;6.30;99.90;;;;;;4993213;28;20201;-69
2023/12/06 10:21:47;;;;;;;1999.90;999.90;;;6.20;99.90;;;;;;4990509;28;20079;-70
2023/12/06 10:24:13;;;;;;;1999.90;999.90;;;6.10;99.90;;;;;;4991273;28;20359;-70
2023/12/06 10:26:39;;;;;;;1999.90;999.90;;;6.00;99.90;;;;;;5008647;28;20112;-69
2023/12/06 10:29:05;;;;;;;1999.90;999.90;;;5.90;99.90;;;;;;4986959;28;20027;-70
2023/12/06 10:31:45;;;;;;;1999.90;999.90;;;5.90;99.90;;;;;;4991961;28;20065;-70
2023/12/06 10:34:12;;;;;;;1999.90;999.90;;;5.90;99.90;;;;;;4988767;28;20045;-70
2023/12/06 10:36:40;;;;;;;1999.90;999.90;;;5.90;99.90;;;;;;4985980;28;20057;-70
2023/12/06 10:39:13;;;;;;;1999.90;999.90;;;5.90;99.90;;;;;;4987104;28;20053;-70
2023/12/06 10:41:43;;;;;;;1999.90;999.90;;;5.80;99.90;;;;;;4982636;28;20024;-70
2023/12/06 10:44:10;;;;;;;1999.90;999.90;;;5.70;99.90;;;;;;4982423;28;20027;-70
2023/12/06 10:46:41;;;;;;;1999.90;999.90;;;5.70;99.90;;;;;;4990327;28;20063;-70
2023/12/06 10:49:08;;;;;;;1999.90;999.90;;;5.60;99.90;;;;;;4991609;28;20026;-70
2023/12/06 10:51:36;;;;;;;1999.90;999.90;;;5.70;99.90;;;;;;4990701;28;20106;-69
2023/12/06 10:54:03;;;;;;;1999.90;999.90;;;5.80;99.90;;;;;;4991333;28;20026;-70
2023/12/06 10:56:30;;;;;;;1999.90;999.90;;;6.00;99.90;;;;;;4988229;28;20023;-70
2023/12/06 10:58:56;;;;;;;1999.90;999.90;;;6.20;99.90;;;;;;4991378;28;20105;-70
2023/12/06 11:01:24;;;;;;;1999.90;999.90;;;6.40;99.90;;;;;;4995269;28;20763;-70
2023/12/06 11:03:52;;;;;;;1999.90;999.90;;;6.50;99.90;;;;;;4973308;28;20085;-70
2023/12/06 11:06:46;;;;;;;1999.90;999.90;;;6.50;99.90;;;;;;4989411;28;20044;-70
2023/12/06 11:09:43;;;;;;;1999.90;999.90;;;6.60;99.90;;;;;;4979943;28;20776;-70
2023/12/06 11:12:32;;;;;;;1999.90;999.90;;;6.60;99.90;;;;;;4991355;28;20030;-70
2023/12/06 11:15:26;;;;;;;1999.90;999.90;;;6.50;99.90;;;;;;4987078;28;20026;-70
2023/12/06 11:17:58;;;;;;;1999.90;999.90;;;6.40;99.90;;;;;;4986191;28;20057;-70
2023/12/06 11:20:25;;;;;;;1999.90;999.90;;;6.30;99.90;;;;;;4990438;28;20030;-70
2023/12/06 11:22:51;;;;;;;1999.90;999.90;;;6.30;99.90;;;;;;4990313;28;20030;-70
2023/12/06 11:25:20;;;;;;;1999.90;999.90;;;6.40;99.90;;;;;;4991331;28;20028;-70
2023/12/06 11:27:48;;;;;;;1999.90;999.90;;;6.30;99.90;;;;;;4973993;28;20391;-70
2023/12/06 11:30:17;;;;;;;1999.90;999.90;;;6.40;99.90;;;;;;4990012;28;20062;-70
2023/12/06 11:32:45;;;;;;;1999.90;999.90;;;6.50;99.90;;;;;;4987577;28;20462;-70
2023/12/06 11:35:11;;;;;;;1999.90;999.90;;;6.60;99.90;;;;;;4991256;28;20038;-70
2023/12/06 11:37:37;;;;;;;1999.90;999.90;;;6.70;99.90;;;;;;4990907;28;20049;-70
2023/12/06 11:40:20;;;;;;;1999.90;999.90;;;6.60;99.90;;;;;;4988092;28;20125;-71
2023/12/06 11:42:55;;;;;;;1999.90;999.90;;;6.60;99.90;;;;;;4990636;28;20088;-69
2023/12/06 11:45:29;;;;;;;1999.90;999.90;;;6.40;99.90;;;;;;4991097;28;20430;-71
2023/12/06 11:47:58;;;;;;;1999.90;999.90;;;6.40;99.90;;;;;;4990743;28;20022;-71
2023/12/06 11:50:24;;;;;;;1999.90;999.90;;;6.30;99.90;;;;;;4990688;28;20282;-70
2023/12/06 11:52:52;;;;;;;1999.90;999.90;;;6.20;99.90;;;;;;4972505;28;20049;-71
2023/12/06 11:55:23;;;;;;;1999.90;999.90;;;6.10;99.90;;;;;;4989479;28;20038;-70
2023/12/06 11:58:00;;;;;;;1999.90;999.90;;;6.10;99.90;;;;;;4988616;28;20034;-70
2023/12/06 12:00:27;;;;;;;1999.90;999.90;;;6.10;99.90;;;;;;4985833;28;20026;-71
2023/12/06 12:02:54;;;;;;;1999.90;999.90;;;6.20;99.90;;;;;;4991297;28;20034;-71
2023/12/06 12:05:21;;;;;;;1999.90;999.90;;;6.20;99.90;;;;;;4990397;28;20109;-68
2023/12/06 12:07:47;;;;;;;1999.90;999.90;;;6.40;99.90;;;;;;4989918;28;20106;-70